sensor_id;sensor_type;location;lat;lon;timestamp;temperature;humidity
5631;DHT22;2837;50.990;7.124;2023-02-26T06:01:11;3.80;99.90
5631;DHT22;2837;50.990;7.124;2023-02-26T06:03:37;3.90;99.90
5631;DHT22;2837;50.990;7.124;2023-02-26T06:06:09;3.70;99.90
5631;DHT22;2837;50.990;7.124;2023-02-26T06:08:34;3.60;99.90
5631;DHT22;2837;50.990;7.124;2023-02-26T06:11:01;3.50;99.90
5631;DHT22;2837;50.990;7.124;2023-02-26T06:13:27;3.50;99.90
5631;DHT22;2837;50.990;7.124;2023-02-26T06:15:52;3.50;99.90
5631;DHT22;2837;50.990;7.124;2023-02-26T06:18:18;3.40;99.90
5631;DHT22;2837;50.990;7.124;2023-02-26T06:20:44;3.50;99.90
5631;DHT22;2837;50.990;7.124;2023-02-26T06:23:09;3.50;99.90
5631;DHT22;2837;50.990;7.124;2023-02-26T06:25:35;3.50;99.90
5631;DHT22;2837;50.990;7.124;2023-02-26T06:28:00;3.60;99.90
5631;DHT22;2837;50.990;7.124;2023-02-26T06:30:26;3.60;99.90
5631;DHT22;2837;50.990;7.124;2023-02-26T06:32:51;3.60;99.90
5631;DHT22;2837;50.990;7.124;2023-02-26T06:35:17;3.60;99.90
5631;DHT22;2837;50.990;7.124;2023-02-26T06:37:42;3.60;99.90
5631;DHT22;2837;50.990;7.124;2023-02-26T06:40:09;3.60;99.90
5631;DHT22;2837;50.990;7.124;2023-02-26T06:42:35;3.50;99.90
5631;DHT22;2837;50.990;7.124;2023-02-26T06:45:01;3.60;99.90
5631;DHT22;2837;50.990;7.124;2023-02-26T06:47:27;3.60;99.90
5631;DHT22;2837;50.990;7.124;2023-02-26T06:49:52;3.50;99.90
5631;DHT22;2837;50.990;7.124;2023-02-26T06:52:18;3.50;99.90
5631;DHT22;2837;50.990;7.124;2023-02-26T06:54:44;3.50;99.90
5631;DHT22;2837;50.990;7.124;2023-02-26T06:57:09;3.30;99.90
5631;DHT22;2837;50.990;7.124;2023-02-26T06:59:35;3.20;99.90
5631;DHT22;2837;50.990;7.124;2023-02-26T07:02:01;3.20;99.90
5631;DHT22;2837;50.990;7.124;2023-02-26T07:04:26;3.20;99.90
5631;DHT22;2837;50.990;7.124;2023-02-26T07:06:52;3.20;99.90
5631;DHT22;2837;50.990;7.124;2023-02-26T07:09:17;3.20;99.90
5631;DHT22;2837;50.990;7.124;2023-02-26T07:11:45;3.20;99.90
5631;DHT22;2837;50.990;7.124;2023-02-26T07:14:11;3.30;99.90
5631;DHT22;2837;50.990;7.124;2023-02-26T07:16:36;3.20;99.90
5631;DHT22;2837;50.990;7.124;2023-02-26T07:19:02;3.30;99.90
5631;DHT22;2837;50.990;7.124;2023-02-26T07:21:27;3.20;99.90
5631;DHT22;2837;50.990;7.124;2023-02-26T07:23:53;3.20;99.90
5631;DHT22;2837;50.990;7.124;2023-02-26T07:26:19;3.10;99.90
5631;DHT22;2837;50.990;7.124;2023-02-26T07:28:44;3.10;99.90
5631;DHT22;2837;50.990;7.124;2023-02-26T07:31:10;3.10;99.90
5631;DHT22;2837;50.990;7.124;2023-02-26T07:33:35;3.10;99.90
5631;DHT22;2837;50.990;7.124;2023-02-26T07:36:03;3.20;99.90
5631;DHT22;2837;50.990;7.124;2023-02-26T07:38:29;3.20;99.90
5631;DHT22;2837;50.990;7.124;2023-02-26T07:40:55;3.10;99.90
5631;DHT22;2837;50.990;7.124;2023-02-26T07:43:22;3.10;99.90
5631;DHT22;2837;50.990;7.124;2023-02-26T07:45:52;3.10;99.90
5631;DHT22;2837;50.990;7.124;2023-02-26T07:48:17;3.20;99.90
5631;DHT22;2837;50.990;7.124;2023-02-26T07:50:44;3.20;99.90
5631;DHT22;2837;50.990;7.124;2023-02-26T07:53:10;3.30;99.90
5631;DHT22;2837;50.990;7.124;2023-02-26T07:55:35;3.30;99.90
5631;DHT22;2837;50.990;7.124;2023-02-26T07:58:01;3.30;99.90
5631;DHT22;2837;50.990;7.124;2023-02-26T08:00:26;3.30;99.90
5631;DHT22;2837;50.990;7.124;2023-02-26T08:02:52;3.30;99.90
5631;DHT22;2837;50.990;7.124;2023-02-26T08:05:18;3.30;99.90
5631;DHT22;2837;50.990;7.124;2023-02-26T08:07:43;3.30;99.90
5631;DHT22;2837;50.990;7.124;2023-02-26T08:10:09;3.40;99.90
5631;DHT22;2837;50.990;7.124;2023-02-26T08:12:35;3.40;99.90
5631;DHT22;2837;50.990;7.124;2023-02-26T08:15:01;3.40;99.90
5631;DHT22;2837;50.990;7.124;2023-02-26T08:17:27;3.40;99.90
5631;DHT22;2837;50.990;7.124;2023-02-26T08:19:53;3.40;99.90
5631;DHT22;2837;50.990;7.124;2023-02-26T08:22:19;3.40;99.90
5631;DHT22;2837;50.990;7.124;2023-02-26T08:24:45;3.50;99.90
5631;DHT22;2837;50.990;7.124;2023-02-26T08:27:10;3.50;99.90
5631;DHT22;2837;50.990;7.124;2023-02-26T08:29:36;3.60;99.90
5631;DHT22;2837;50.990;7.124;2023-02-26T08:32:02;3.70;99.90
5631;DHT22;2837;50.990;7.124;2023-02-26T08:34:27;3.70;99.90
5631;DHT22;2837;50.990;7.124;2023-02-26T08:36:53;3.70;99.90
5631;DHT22;2837;50.990;7.124;2023-02-26T08:39:19;3.60;99.90
5631;DHT22;2837;50.990;7.124;2023-02-26T08:41:44;3.60;99.90
5631;DHT22;2837;50.990;7.124;2023-02-26T08:44:10;3.60;99.90
5631;DHT22;2837;50.990;7.124;2023-02-26T08:46:35;3.60;99.90
5631;DHT22;2837;50.990;7.124;2023-02-26T08:49:01;3.70;99.90
5631;DHT22;2837;50.990;7.124;2023-02-26T08:51:26;3.70;99.90
5631;DHT22;2837;50.990;7.124;2023-02-26T08:53:52;3.70;99.90
5631;DHT22;2837;50.990;7.124;2023-02-26T08:56:18;3.60;99.90
5631;DHT22;2837;50.990;7.124;2023-02-26T08:58:44;3.50;99.90
5631;DHT22;2837;50.990;7.124;2023-02-26T09:01:09;3.40;99.90
5631;DHT22;2837;50.990;7.124;2023-02-26T09:03:35;3.40;99.90
5631;DHT22;2837;50.990;7.124;2023-02-26T09:06:01;3.50;99.90
5631;DHT22;2837;50.990;7.124;2023-02-26T09:08:27;3.50;99.90
5631;DHT22;2837;50.990;7.124;2023-02-26T09:10:52;3.60;99.90
5631;DHT22;2837;50.990;7.124;2023-02-26T09:13:18;3.60;99.90
5631;DHT22;2837;50.990;7.124;2023-02-26T09:15:43;3.70;99.90
5631;DHT22;2837;50.990;7.124;2023-02-26T09:18:09;3.80;99.90
5631;DHT22;2837;50.990;7.124;2023-02-26T09:20:40;3.70;99.90
5631;DHT22;2837;50.990;7.124;2023-02-26T09:23:07;3.70;99.90
5631;DHT22;2837;50.990;7.124;2023-02-26T09:25:32;3.80;99.90
5631;DHT22;2837;50.990;7.124;2023-02-26T09:27:58;3.80;99.90
5631;DHT22;2837;50.990;7.124;2023-02-26T09:30:23;3.90;99.90
5631;DHT22;2837;50.990;7.124;2023-02-26T09:32:49;3.90;98.30
5631;DHT22;2837;50.990;7.124;2023-02-26T09:35:14;3.90;94.50
5631;DHT22;2837;50.990;7.124;2023-02-26T09:37:40;3.90;95.20
5631;DHT22;2837;50.990;7.124;2023-02-26T09:40:06;3.90;94.70
5631;DHT22;2837;50.990;7.124;2023-02-26T09:42:52;3.90;90.00
5631;DHT22;2837;50.990;7.124;2023-02-26T09:45:29;3.90;92.40
5631;DHT22;2837;50.990;7.124;2023-02-26T09:47:56;4.00;94.00
5631;DHT22;2837;50.990;7.124;2023-02-26T09:50:27;4.10;91.10
5631;DHT22;2837;50.990;7.124;2023-02-26T09:55:38;4.10;83.00
5631;DHT22;2837;50.990;7.124;2023-02-26T09:58:30;4.10;76.80
5631;DHT22;2837;50.990;7.124;2023-02-26T10:01:19;4.20;77.60
5631;DHT22;2837;50.990;7.124;2023-02-26T10:06:54;4.10;70.80
5631;DHT22;2837;50.990;7.124;2023-02-26T10:09:33;4.10;71.20
5631;DHT22;2837;50.990;7.124;2023-02-26T10:12:12;4.20;69.80
5631;DHT22;2837;50.990;7.124;2023-02-26T10:20:09;4.20;69.10
5631;DHT22;2837;50.990;7.124;2023-02-26T10:22:44;4.20;67.70
5631;DHT22;2837;50.990;7.124;2023-02-26T10:25:16;4.20;68.70
5631;DHT22;2837;50.990;7.124;2023-02-26T10:28:07;4.20;68.70
5631;DHT22;2837;50.990;7.124;2023-02-26T10:30:43;4.20;67.70
5631;DHT22;2837;50.990;7.124;2023-02-26T10:33:39;4.30;68.00
5631;DHT22;2837;50.990;7.124;2023-02-26T10:36:27;4.40;69.90
5631;DHT22;2837;50.990;7.124;2023-02-26T10:39:03;4.60;68.90
5631;DHT22;2837;50.990;7.124;2023-02-26T10:41:35;4.70;67.10
5631;DHT22;2837;50.990;7.124;2023-02-26T10:44:12;4.70;66.50
5631;DHT22;2837;50.990;7.124;2023-02-26T10:51:53;4.80;64.10
5631;DHT22;2837;50.990;7.124;2023-02-26T10:54:34;4.80;63.60
5631;DHT22;2837;50.990;7.124;2023-02-26T10:57:00;4.80;64.40
5631;DHT22;2837;50.990;7.124;2023-02-26T10:59:26;4.80;65.00
5631;DHT22;2837;50.990;7.124;2023-02-26T11:01:52;4.80;63.10
5631;DHT22;2837;50.990;7.124;2023-02-26T11:04:20;4.80;61.80
5631;DHT22;2837;50.990;7.124;2023-02-26T11:06:57;4.80;61.10
5631;DHT22;2837;50.990;7.124;2023-02-26T11:09:28;4.80;61.00
5631;DHT22;2837;50.990;7.124;2023-02-26T11:12:13;4.80;59.90
5631;DHT22;2837;50.990;7.124;2023-02-26T11:14:41;4.80;59.80
5631;DHT22;2837;50.990;7.124;2023-02-26T11:17:16;4.70;59.50
5631;DHT22;2837;50.990;7.124;2023-02-26T11:19:52;4.80;59.00
5631;DHT22;2837;50.990;7.124;2023-02-26T11:22:21;4.80;59.60
5631;DHT22;2837;50.990;7.124;2023-02-26T11:24:48;4.80;59.10
5631;DHT22;2837;50.990;7.124;2023-02-26T11:27:21;4.70;58.50
5631;DHT22;2837;50.990;7.124;2023-02-26T11:29:54;4.70;58.80
5631;DHT22;2837;50.990;7.124;2023-02-26T11:32:23;4.60;59.50
5631;DHT22;2837;50.990;7.124;2023-02-26T11:34:50;4.60;59.40
5631;DHT22;2837;50.990;7.124;2023-02-26T11:37:26;4.70;60.30
5631;DHT22;2837;50.990;7.124;2023-02-26T11:39:58;4.70;60.30
5631;DHT22;2837;50.990;7.124;2023-02-26T11:42:25;4.70;59.40
5631;DHT22;2837;50.990;7.124;2023-02-26T11:44:52;4.70;59.90
5631;DHT22;2837;50.990;7.124;2023-02-26T11:47:25;4.70;60.40
5631;DHT22;2837;50.990;7.124;2023-02-26T11:49:59;4.80;59.80
5631;DHT22;2837;50.990;7.124;2023-02-26T11:52:35;4.70;57.70
5631;DHT22;2837;50.990;7.124;2023-02-26T11:57:46;4.80;56.80
5631;DHT22;2837;50.990;7.124;2023-02-26T12:00:35;4.80;57.00
5631;DHT22;2837;50.990;7.124;2023-02-26T12:03:04;4.80;56.40
5631;DHT22;2837;50.990;7.124;2023-02-26T12:05:32;4.80;56.60
5631;DHT22;2837;50.990;7.124;2023-02-26T12:07:58;4.90;56.90
5631;DHT22;2837;50.990;7.124;2023-02-26T12:10:58;4.90;57.40
5631;DHT22;2837;50.990;7.124;2023-02-26T12:16:26;5.20;56.20
5631;DHT22;2837;50.990;7.124;2023-02-26T12:27:21;5.40;57.10
5631;DHT22;2837;50.990;7.124;2023-02-26T12:38:28;5.20;56.60
5631;DHT22;2837;50.990;7.124;2023-02-26T12:41:29;5.10;56.40
5631;DHT22;2837;50.990;7.124;2023-02-26T12:43:59;5.10;57.20
5631;DHT22;2837;50.990;7.124;2023-02-26T13:13:16;5.40;54.60
5631;DHT22;2837;50.990;7.124;2023-02-26T13:15:37;5.30;54.00
5631;DHT22;2837;50.990;7.124;2023-02-26T13:21:02;5.40;54.50
5631;DHT22;2837;50.990;7.124;2023-02-26T13:26:13;5.40;53.00
5631;DHT22;2837;50.990;7.124;2023-02-26T13:28:53;5.30;53.20
5631;DHT22;2837;50.990;7.124;2023-02-26T13:31:28;5.30;53.20
5631;DHT22;2837;50.990;7.124;2023-02-26T13:34:00;5.30;53.80
5631;DHT22;2837;50.990;7.124;2023-02-26T13:36:27;5.30;53.30
5631;DHT22;2837;50.990;7.124;2023-02-26T13:42:19;5.20;52.10
5631;DHT22;2837;50.990;7.124;2023-02-26T13:53:32;5.40;53.40
5631;DHT22;2837;50.990;7.124;2023-02-26T13:55:54;5.40;52.80
5631;DHT22;2837;50.990;7.124;2023-02-26T14:01:05;5.40;53.10
5631;DHT22;2837;50.990;7.124;2023-02-26T14:03:34;5.40;52.50
5631;DHT22;2837;50.990;7.124;2023-02-26T14:09:28;5.40;52.40
5631;DHT22;2837;50.990;7.124;2023-02-26T14:24:55;5.60;51.00
5631;DHT22;2837;50.990;7.124;2023-02-26T14:27:47;5.60;51.20
5631;DHT22;2837;50.990;7.124;2023-02-26T14:30:33;5.60;50.80
5631;DHT22;2837;50.990;7.124;2023-02-26T14:35:42;5.70;51.00
5631;DHT22;2837;50.990;7.124;2023-02-26T14:38:13;5.70;50.50
5631;DHT22;2837;50.990;7.124;2023-02-26T14:40:49;5.50;50.20
5631;DHT22;2837;50.990;7.124;2023-02-26T14:43:20;5.50;50.60
5631;DHT22;2837;50.990;7.124;2023-02-26T14:45:47;5.50;50.90
5631;DHT22;2837;50.990;7.124;2023-02-26T14:48:16;5.50;51.40
5631;DHT22;2837;50.990;7.124;2023-02-26T14:56:52;5.60;51.90
5631;DHT22;2837;50.990;7.124;2023-02-26T15:02:31;5.40;51.50
5631;DHT22;2837;50.990;7.124;2023-02-26T15:05:14;5.50;51.40
5631;DHT22;2837;50.990;7.124;2023-02-26T15:24:03;5.50;51.30
5631;DHT22;2837;50.990;7.124;2023-02-26T15:26:34;5.50;51.60
5631;DHT22;2837;50.990;7.124;2023-02-26T15:29:03;5.60;51.60
5631;DHT22;2837;50.990;7.124;2023-02-26T15:31:35;5.60;51.30
5631;DHT22;2837;50.990;7.124;2023-02-26T15:34:02;5.60;51.30
5631;DHT22;2837;50.990;7.124;2023-02-26T15:36:29;5.60;50.40
5631;DHT22;2837;50.990;7.124;2023-02-26T15:38:57;5.60;49.70
5631;DHT22;2837;50.990;7.124;2023-02-26T15:41:25;5.50;50.10
5631;DHT22;2837;50.990;7.124;2023-02-26T15:43:55;5.50;50.60
5631;DHT22;2837;50.990;7.124;2023-02-26T15:46:28;5.50;50.00
5631;DHT22;2837;50.990;7.124;2023-02-26T15:48:59;5.50;50.50
5631;DHT22;2837;50.990;7.124;2023-02-26T15:51:26;5.50;49.70
5631;DHT22;2837;50.990;7.124;2023-02-26T15:53:52;5.50;49.90
5631;DHT22;2837;50.990;7.124;2023-02-26T15:56:30;5.50;50.60
5631;DHT22;2837;50.990;7.124;2023-02-26T15:59:11;5.50;50.70
5631;DHT22;2837;50.990;7.124;2023-02-26T16:01:39;5.50;50.70
5631;DHT22;2837;50.990;7.124;2023-02-26T16:04:11;5.60;51.00
5631;DHT22;2837;50.990;7.124;2023-02-26T16:06:39;5.60;51.00
5631;DHT22;2837;50.990;7.124;2023-02-26T16:09:13;5.60;51.10
5631;DHT22;2837;50.990;7.124;2023-02-26T16:11:40;5.60;51.70
5631;DHT22;2837;50.990;7.124;2023-02-26T16:14:07;5.60;51.80
5631;DHT22;2837;50.990;7.124;2023-02-26T16:16:45;5.60;50.40
5631;DHT22;2837;50.990;7.124;2023-02-26T16:19:16;5.50;49.80
5631;DHT22;2837;50.990;7.124;2023-02-26T16:21:44;5.50;50.30
5631;DHT22;2837;50.990;7.124;2023-02-26T16:24:15;5.50;49.70
5631;DHT22;2837;50.990;7.124;2023-02-26T16:26:45;5.60;50.10
5631;DHT22;2837;50.990;7.124;2023-02-26T16:29:14;5.40;50.00
5631;DHT22;2837;50.990;7.124;2023-02-26T16:31:42;5.40;50.50
5631;DHT22;2837;50.990;7.124;2023-02-26T16:34:41;5.30;50.70
5631;DHT22;2837;50.990;7.124;2023-02-26T16:37:22;5.30;50.80
5631;DHT22;2837;50.990;7.124;2023-02-26T16:40:35;5.30;51.60
5631;DHT22;2837;50.990;7.124;2023-02-26T16:47:50;5.20;51.30
5631;DHT22;2837;50.990;7.124;2023-02-26T16:50:20;5.20;51.90
5631;DHT22;2837;50.990;7.124;2023-02-26T16:53:16;5.20;51.70
5631;DHT22;2837;50.990;7.124;2023-02-26T16:55:50;5.20;52.60
5631;DHT22;2837;50.990;7.124;2023-02-26T16:58:17;5.20;52.00
5631;DHT22;2837;50.990;7.124;2023-02-26T17:00:44;5.20;52.00
5631;DHT22;2837;50.990;7.124;2023-02-26T17:03:17;5.20;52.80
5631;DHT22;2837;50.990;7.124;2023-02-26T17:05:55;5.20;52.00
5631;DHT22;2837;50.990;7.124;2023-02-26T17:08:26;5.20;52.50
5631;DHT22;2837;50.990;7.124;2023-02-26T17:11:20;5.20;52.60
5631;DHT22;2837;50.990;7.124;2023-02-26T17:14:42;5.20;52.50
5631;DHT22;2837;50.990;7.124;2023-02-26T17:16:44;5.20;52.40
5631;DHT22;2837;50.990;7.124;2023-02-26T17:19:11;5.10;53.30
5631;DHT22;2837;50.990;7.124;2023-02-26T17:21:42;5.20;53.30
5631;DHT22;2837;50.990;7.124;2023-02-26T17:24:16;5.20;52.70
5631;DHT22;2837;50.990;7.124;2023-02-26T17:26:43;5.20;52.60
5631;DHT22;2837;50.990;7.124;2023-02-26T17:29:19;5.10;52.70
5631;DHT22;2837;50.990;7.124;2023-02-26T17:31:48;5.10;53.10
5631;DHT22;2837;50.990;7.124;2023-02-26T17:34:14;5.00;52.90
5631;DHT22;2837;50.990;7.124;2023-02-26T17:36:39;5.00;53.30
5631;DHT22;2837;50.990;7.124;2023-02-26T17:39:05;5.00;53.60
5631;DHT22;2837;50.990;7.124;2023-02-26T17:41:31;4.90;53.60
5631;DHT22;2837;50.990;7.124;2023-02-26T17:43:58;5.00;53.30
5631;DHT22;2837;50.990;7.124;2023-02-26T17:46:24;4.90;53.70
5631;DHT22;2837;50.990;7.124;2023-02-26T17:48:49;4.90;54.10
5631;DHT22;2837;50.990;7.124;2023-02-26T17:51:15;4.90;53.70
5631;DHT22;2837;50.990;7.124;2023-02-26T17:53:41;4.80;54.20
5631;DHT22;2837;50.990;7.124;2023-02-26T17:56:10;4.80;54.30
5631;DHT22;2837;50.990;7.124;2023-02-26T17:58:36;4.80;54.50
5631;DHT22;2837;50.990;7.124;2023-02-26T18:01:02;4.80;55.30
5631;DHT22;2837;50.990;7.124;2023-02-26T18:03:29;4.80;55.30
5631;DHT22;2837;50.990;7.124;2023-02-26T18:05:55;4.70;55.30
5631;DHT22;2837;50.990;7.124;2023-02-26T18:08:32;5.10;55.60
5631;DHT22;2837;50.990;7.124;2023-02-26T18:10:59;4.70;55.70
5631;DHT22;2837;50.990;7.124;2023-02-26T18:13:27;4.70;55.90
5631;DHT22;2837;50.990;7.124;2023-02-26T18:15:53;4.70;56.40
5631;DHT22;2837;50.990;7.124;2023-02-26T18:18:21;4.60;56.90
5631;DHT22;2837;50.990;7.124;2023-02-26T18:20:48;4.60;57.40
5631;DHT22;2837;50.990;7.124;2023-02-26T18:23:13;4.60;57.80
5631;DHT22;2837;50.990;7.124;2023-02-26T18:25:42;4.60;58.30
5631;DHT22;2837;50.990;7.124;2023-02-26T18:28:13;4.70;58.30
5631;DHT22;2837;50.990;7.124;2023-02-26T18:30:39;4.60;58.20
5631;DHT22;2837;50.990;7.124;2023-02-26T18:33:07;4.40;58.40
5631;DHT22;2837;50.990;7.124;2023-02-26T18:35:33;4.40;59.10
5631;DHT22;2837;50.990;7.124;2023-02-26T18:37:58;4.40;59.30
5631;DHT22;2837;50.990;7.124;2023-02-26T18:40:25;4.30;59.30
5631;DHT22;2837;50.990;7.124;2023-02-26T18:42:52;4.20;59.50
5631;DHT22;2837;50.990;7.124;2023-02-26T18:45:18;4.20;59.50
5631;DHT22;2837;50.990;7.124;2023-02-26T18:47:44;4.20;60.00
5631;DHT22;2837;50.990;7.124;2023-02-26T18:50:12;4.10;60.40
5631;DHT22;2837;50.990;7.124;2023-02-26T18:52:38;4.20;61.10
5631;DHT22;2837;50.990;7.124;2023-02-26T18:55:04;4.10;61.10
5631;DHT22;2837;50.990;7.124;2023-02-26T18:57:31;4.20;61.90
5631;DHT22;2837;50.990;7.124;2023-02-26T18:59:58;4.20;61.90
5631;DHT22;2837;50.990;7.124;2023-02-26T19:02:23;4.20;62.60
5631;DHT22;2837;50.990;7.124;2023-02-26T19:04:49;4.20;62.70
5631;DHT22;2837;50.990;7.124;2023-02-26T19:07:15;4.10;62.60
5631;DHT22;2837;50.990;7.124;2023-02-26T19:09:40;4.10;63.40
5631;DHT22;2837;50.990;7.124;2023-02-26T19:12:06;4.10;64.90
5631;DHT22;2837;50.990;7.124;2023-02-26T19:14:32;4.10;64.90
5631;DHT22;2837;50.990;7.124;2023-02-26T19:16:58;4.10;67.00
5631;DHT22;2837;50.990;7.124;2023-02-26T19:19:24;4.10;67.30
5631;DHT22;2837;50.990;7.124;2023-02-26T19:21:49;4.10;67.90
5631;DHT22;2837;50.990;7.124;2023-02-26T19:24:15;4.10;70.00
5631;DHT22;2837;50.990;7.124;2023-02-26T19:26:42;3.90;73.90
5631;DHT22;2837;50.990;7.124;2023-02-26T19:29:12;4.10;77.50
5631;DHT22;2837;50.990;7.124;2023-02-26T19:31:38;4.10;84.90
5631;DHT22;2837;50.990;7.124;2023-02-26T19:34:03;4.20;86.40
5631;DHT22;2837;50.990;7.124;2023-02-26T19:36:29;4.20;83.00
5631;DHT22;2837;50.990;7.124;2023-02-26T19:39:02;4.30;83.20
5631;DHT22;2837;50.990;7.124;2023-02-26T19:41:28;4.30;93.00
5631;DHT22;2837;50.990;7.124;2023-02-26T19:43:54;4.30;91.80
5631;DHT22;2837;50.990;7.124;2023-02-26T19:46:19;4.30;97.30
5631;DHT22;2837;50.990;7.124;2023-02-26T19:48:45;4.20;87.00
5631;DHT22;2837;50.990;7.124;2023-02-26T19:51:10;4.10;90.80
5631;DHT22;2837;50.990;7.124;2023-02-26T19:53:36;4.00;98.10
5631;DHT22;2837;50.990;7.124;2023-02-26T19:56:03;4.00;91.10
5631;DHT22;2837;50.990;7.124;2023-02-26T19:58:29;3.90;94.20
5631;DHT22;2837;50.990;7.124;2023-02-26T20:00:59;3.80;99.90
5631;DHT22;2837;50.990;7.124;2023-02-26T20:03:26;3.80;99.90
5631;DHT22;2837;50.990;7.124;2023-02-26T20:05:52;4.00;99.90
5631;DHT22;2837;50.990;7.124;2023-02-26T20:08:21;4.00;99.90
5631;DHT22;2837;50.990;7.124;2023-02-26T20:10:50;3.90;99.90
5631;DHT22;2837;50.990;7.124;2023-02-26T20:13:16;3.70;99.90
5631;DHT22;2837;50.990;7.124;2023-02-26T20:15:42;3.70;99.90
5631;DHT22;2837;50.990;7.124;2023-02-26T20:18:08;3.60;99.90
5631;DHT22;2837;50.990;7.124;2023-02-26T20:20:34;3.70;99.90
5631;DHT22;2837;50.990;7.124;2023-02-26T20:23:00;3.70;99.90
5631;DHT22;2837;50.990;7.124;2023-02-26T20:25:27;3.80;99.90
5631;DHT22;2837;50.990;7.124;2023-02-26T20:27:53;3.30;99.90
5631;DHT22;2837;50.990;7.124;2023-02-26T20:30:19;4.00;99.90
5631;DHT22;2837;50.990;7.124;2023-02-26T20:32:45;4.00;99.90
5631;DHT22;2837;50.990;7.124;2023-02-26T20:35:11;3.90;99.90
5631;DHT22;2837;50.990;7.124;2023-02-26T20:37:36;3.70;99.90
5631;DHT22;2837;50.990;7.124;2023-02-26T20:40:03;3.60;99.90
5631;DHT22;2837;50.990;7.124;2023-02-26T20:42:29;3.60;99.90
5631;DHT22;2837;50.990;7.124;2023-02-26T20:44:55;3.70;99.90
5631;DHT22;2837;50.990;7.124;2023-02-26T20:47:20;3.80;99.90
5631;DHT22;2837;50.990;7.124;2023-02-26T20:49:46;3.80;99.90
5631;DHT22;2837;50.990;7.124;2023-02-26T20:52:12;3.70;99.90
5631;DHT22;2837;50.990;7.124;2023-02-26T20:54:37;3.70;99.90
5631;DHT22;2837;50.990;7.124;2023-02-26T20:57:03;3.70;99.90
5631;DHT22;2837;50.990;7.124;2023-02-26T20:59:29;3.80;99.90
5631;DHT22;2837;50.990;7.124;2023-02-26T21:01:54;3.60;99.90
5631;DHT22;2837;50.990;7.124;2023-02-26T21:04:22;3.50;99.90
5631;DHT22;2837;50.990;7.124;2023-02-26T21:06:47;3.40;99.90
5631;DHT22;2837;50.990;7.124;2023-02-26T21:09:13;3.40;99.90
5631;DHT22;2837;50.990;7.124;2023-02-26T21:11:39;3.40;99.90
5631;DHT22;2837;50.990;7.124;2023-02-26T21:14:07;3.30;99.90
5631;DHT22;2837;50.990;7.124;2023-02-26T21:16:33;3.40;99.90
5631;DHT22;2837;50.990;7.124;2023-02-26T21:18:58;3.50;99.90
5631;DHT22;2837;50.990;7.124;2023-02-26T21:21:29;3.50;99.90
5631;DHT22;2837;50.990;7.124;2023-02-26T21:23:54;3.50;99.90
5631;DHT22;2837;50.990;7.124;2023-02-26T21:26:21;3.40;99.90
5631;DHT22;2837;50.990;7.124;2023-02-26T21:28:47;3.50;99.90
5631;DHT22;2837;50.990;7.124;2023-02-26T21:31:15;3.50;99.90
5631;DHT22;2837;50.990;7.124;2023-02-26T21:33:40;3.50;99.90
5631;DHT22;2837;50.990;7.124;2023-02-26T21:36:06;3.50;99.90
5631;DHT22;2837;50.990;7.124;2023-02-26T21:38:33;3.60;99.90
5631;DHT22;2837;50.990;7.124;2023-02-26T21:40:58;3.50;99.90
5631;DHT22;2837;50.990;7.124;2023-02-26T21:43:24;3.40;99.90
5631;DHT22;2837;50.990;7.124;2023-02-26T21:45:50;3.40;99.90
5631;DHT22;2837;50.990;7.124;2023-02-26T21:48:15;3.40;99.90
5631;DHT22;2837;50.990;7.124;2023-02-26T21:50:41;3.40;99.90
5631;DHT22;2837;50.990;7.124;2023-02-26T21:53:06;3.40;99.90
5631;DHT22;2837;50.990;7.124;2023-02-26T21:55:32;3.30;99.90
5631;DHT22;2837;50.990;7.124;2023-02-26T21:57:58;3.30;99.90
